Spencer Mountain, North Carolina
Current Conditions -  °F | °C
As of 3:54 PM on Tuesday 21 Oct 2014 (Local Time) from KAKH Reporting Station
Few Clouds Few Clouds  
Wind Chill: 74°   Ceiling: Unl
Heat Index: 74°   Visibility: 10mi
Dew Point: 44°   Wind: 8mph
Humidity: 34%   Direction: 280°W
Pressure: 29.87"   Gusts: NA
Location:  35.2631°N, 81.1487°W
Report Text: KAKH 211954Z AUTO 28007KT 230V320 10SM FEW065 23/07 A2987 RMK AO2 SLP110 T02330067
Loading
Personal Weather Stations






























Interactive Weather Map
Tropical Storm Tracking
New forecast layout! Learn more

10-Day Weather Forecast

Advertisements
Track Severe Weather on mobile